createdAt,value
2022-08-19T00:00:55.152Z,25.60
2022-08-19T00:05:57.590Z,25.00
2022-08-19T00:10:59.998Z,25.00
2022-08-19T00:16:03.566Z,25.00
2022-08-19T00:21:08.562Z,25.00
2022-08-19T00:26:11.748Z,24.90
2022-08-19T00:31:14.193Z,25.00
2022-08-19T00:36:16.806Z,24.90
2022-08-19T00:41:22.473Z,25.00
2022-08-19T00:46:25.062Z,25.00
2022-08-19T00:51:30.792Z,25.10
2022-08-19T00:56:34.559Z,25.10
2022-08-19T01:01:43.069Z,24.90
2022-08-19T01:06:45.606Z,25.00
2022-08-19T01:11:48.420Z,24.90
2022-08-19T01:16:55.431Z,24.90
2022-08-19T01:22:17.642Z,24.80
2022-08-19T01:27:21.878Z,24.90
2022-08-19T01:32:33.909Z,25.00
2022-08-19T01:37:48.637Z,25.10
2022-08-19T01:42:52.915Z,25.10
2022-08-19T01:48:01.790Z,25.20
2022-08-19T01:53:08.237Z,25.00
2022-08-19T01:58:19.779Z,25.10
2022-08-19T02:03:22.278Z,24.90
2022-08-19T02:08:24.727Z,24.80
2022-08-19T02:13:28.203Z,24.70
2022-08-19T02:18:30.672Z,24.70
2022-08-19T02:23:33.098Z,24.60
2022-08-19T02:28:35.887Z,24.60
2022-08-19T02:33:38.517Z,24.80
2022-08-19T02:38:41.521Z,24.70
2022-08-19T02:44:02.727Z,24.70
2022-08-19T02:49:08.762Z,24.70
2022-08-19T02:54:13.505Z,24.70
2022-08-19T02:59:15.955Z,24.80
2022-08-19T03:04:18.449Z,24.70
2022-08-19T03:09:21.433Z,24.70
2022-08-19T03:14:24.256Z,24.60
2022-08-19T03:19:26.850Z,24.60
2022-08-19T03:24:29.365Z,24.50
2022-08-19T03:29:32.898Z,24.40
2022-08-19T03:34:38.543Z,24.30
2022-08-19T03:39:43.161Z,24.20
2022-08-19T03:44:46.043Z,24.20
2022-08-19T03:49:48.539Z,24.10
2022-08-19T03:54:50.944Z,24.10
2022-08-19T03:59:53.427Z,24.10
2022-08-19T04:04:56.404Z,24.10
2022-08-19T04:09:58.817Z,24.10
2022-08-19T04:15:01.240Z,24.00
2022-08-19T04:20:06.922Z,23.90
2022-08-19T04:25:10.243Z,24.00
2022-08-19T04:30:14.031Z,24.10
2022-08-19T04:35:19.386Z,24.10
2022-08-19T04:40:43.112Z,23.90
2022-08-19T04:45:46.821Z,23.70
2022-08-19T04:50:49.281Z,23.80
2022-08-19T04:55:52.759Z,23.80
2022-08-19T05:01:14.015Z,23.90
2022-08-19T05:06:18.954Z,24.00
2022-08-19T05:11:38.563Z,23.90
2022-08-19T05:17:06.477Z,24.10
2022-08-19T05:22:33.924Z,24.10
2022-08-19T05:27:36.929Z,24.00
2022-08-19T05:32:41.137Z,24.10
2022-08-19T05:37:43.609Z,24.30
2022-08-19T05:43:08.446Z,24.30
2022-08-19T05:48:12.349Z,24.40
2022-08-19T05:53:17.342Z,24.50
2022-08-19T05:58:19.778Z,24.30
2022-08-19T06:03:25.679Z,24.50
2022-08-19T06:08:33.875Z,24.60
2022-08-19T06:13:37.147Z,24.80
2022-08-19T06:18:39.650Z,25.10
2022-08-19T06:23:42.115Z,25.20
2022-08-19T06:28:47.860Z,25.20
2022-08-19T06:33:50.932Z,25.30
2022-08-19T06:38:53.546Z,25.40
2022-08-19T06:43:56.838Z,25.40
2022-08-19T06:49:00.503Z,25.50
2022-08-19T06:54:04.456Z,25.60
2022-08-19T06:59:13.339Z,25.70
2022-08-19T07:04:19.023Z,25.90
2022-08-19T07:09:21.633Z,26.00
2022-08-19T07:14:27.719Z,26.10
2022-08-19T07:19:30.340Z,26.20
2022-08-19T07:24:33.922Z,26.20
2022-08-19T07:29:37.727Z,26.50
2022-08-19T07:34:40.546Z,26.70
2022-08-19T07:39:47.921Z,26.90
2022-08-19T07:44:51.107Z,27.10
2022-08-19T07:49:53.765Z,27.00
2022-08-19T07:54:56.396Z,27.10
2022-08-19T07:59:59.497Z,27.20
2022-08-19T08:05:20.692Z,27.30
2022-08-19T08:10:24.805Z,27.40
2022-08-19T08:15:27.296Z,27.60
2022-08-19T08:20:32.107Z,27.70
2022-08-19T08:25:36.479Z,27.80
2022-08-19T08:30:42.455Z,28.00
2022-08-19T08:35:47.957Z,28.40
2022-08-19T08:41:07.772Z,28.50
2022-08-19T08:46:19.179Z,28.70
2022-08-19T08:51:47.606Z,28.90
2022-08-19T08:56:52.727Z,29.10
2022-08-19T09:01:56.192Z,29.20
2022-08-19T09:07:22.891Z,29.30
2022-08-19T09:12:39.314Z,29.50
2022-08-19T09:17:45.507Z,29.50
2022-08-19T09:22:52.718Z,29.50
2022-08-19T09:28:02.303Z,29.80
2022-08-19T09:33:06.177Z,29.90
2022-08-19T09:38:09.093Z,29.90
2022-08-19T09:43:13.114Z,30.10
2022-08-19T09:48:19.056Z,30.10
2022-08-19T09:53:27.522Z,30.30
2022-08-19T09:58:31.708Z,30.60
2022-08-19T10:03:36.347Z,30.80
2022-08-19T10:08:40.865Z,31.00
2022-08-19T10:13:53.200Z,31.00
2022-08-19T10:18:58.740Z,31.20
2022-08-19T10:24:05.056Z,31.40
2022-08-19T10:29:09.261Z,31.60
2022-08-19T10:34:17.581Z,31.80
2022-08-19T10:39:35.442Z,32.00
2022-08-19T10:44:45.770Z,32.10
2022-08-19T10:50:09.159Z,32.50
2022-08-19T10:55:33.283Z,32.90
2022-08-19T11:00:35.874Z,33.40
2022-08-19T11:05:40.682Z,33.80
2022-08-19T11:10:43.795Z,34.00
2022-08-19T11:16:03.977Z,34.30
2022-08-19T11:21:18.196Z,34.40
2022-08-19T11:26:22.696Z,34.20
2022-08-19T11:31:29.205Z,34.30
2022-08-19T11:36:33.642Z,34.20
2022-08-19T11:41:36.341Z,34.30
2022-08-19T11:46:39.269Z,35.00
2022-08-19T11:51:44.126Z,35.10
2022-08-19T11:56:48.809Z,34.90
2022-08-19T12:01:51.267Z,34.40
2022-08-19T12:06:54.063Z,34.20
2022-08-19T12:11:57.269Z,35.00
2022-08-19T12:16:59.687Z,35.10
2022-08-19T12:22:04.389Z,35.50
2022-08-19T12:27:08.926Z,35.50
2022-08-19T12:32:15.892Z,35.40
2022-08-19T12:37:18.308Z,36.00
2022-08-19T12:42:23.337Z,36.00
2022-08-19T12:47:27.408Z,36.10
2022-08-19T12:52:29.952Z,37.00
2022-08-19T12:57:35.134Z,37.50
2022-08-19T13:02:39.379Z,38.20
2022-08-19T13:07:42.410Z,38.70
2022-08-19T13:12:46.776Z,38.70
2022-08-19T13:17:51.346Z,37.90
2022-08-19T13:22:54.781Z,37.90
2022-08-19T13:27:57.264Z,38.10
2022-08-19T13:33:12.027Z,38.50
2022-08-19T13:38:17.421Z,39.30
2022-08-19T13:43:23.814Z,39.60
2022-08-19T13:48:32.072Z,40.10
2022-08-19T13:53:34.585Z,39.90
2022-08-19T13:58:38.037Z,39.90
2022-08-19T14:03:40.470Z,40.70
2022-08-19T14:08:46.024Z,40.50
2022-08-19T14:13:48.915Z,40.30
2022-08-19T14:18:52.361Z,40.40
2022-08-19T14:23:54.946Z,40.90
2022-08-19T14:28:58.727Z,40.60
2022-08-19T14:34:01.799Z,40.70
2022-08-19T14:39:05.446Z,39.60
2022-08-19T14:44:08.335Z,39.40
2022-08-19T14:49:10.764Z,39.10
2022-08-19T14:54:14.086Z,38.60
2022-08-19T14:59:16.773Z,37.50
2022-08-19T15:04:19.315Z,36.80
2022-08-19T15:09:21.856Z,36.90
2022-08-19T15:14:24.520Z,37.30
2022-08-19T15:19:27.016Z,36.90
2022-08-19T15:24:29.543Z,36.40
2022-08-19T15:29:33.368Z,35.70
2022-08-19T15:34:36.159Z,35.10
2022-08-19T15:39:38.752Z,34.60
2022-08-19T15:44:41.806Z,34.10
2022-08-19T15:49:44.475Z,33.60
2022-08-19T15:54:47.102Z,33.20
2022-08-19T16:00:11.502Z,33.20
2022-08-19T16:05:36.598Z,32.90
2022-08-19T16:10:40.031Z,32.60
2022-08-19T16:15:43.175Z,31.80
2022-08-19T16:20:46.753Z,31.50
2022-08-19T16:25:49.612Z,31.30
2022-08-19T16:30:52.552Z,31.00
2022-08-19T16:36:00.224Z,31.10
2022-08-19T16:41:09.762Z,31.30
2022-08-19T16:46:12.387Z,30.80
2022-08-19T16:51:22.871Z,30.80
2022-08-19T16:56:25.887Z,30.80
2022-08-19T17:01:29.253Z,30.90
2022-08-19T17:06:32.148Z,30.40
2022-08-19T17:11:35.705Z,30.30
2022-08-19T17:16:38.287Z,30.40
2022-08-19T17:21:41.224Z,30.20
2022-08-19T17:26:44.004Z,30.10
2022-08-19T17:31:46.420Z,30.00
2022-08-19T17:36:48.902Z,29.90
2022-08-19T17:41:52.038Z,29.70
2022-08-19T17:46:56.678Z,29.40
2022-08-19T17:51:59.718Z,29.30
2022-08-19T17:57:02.222Z,29.30
2022-08-19T18:02:07.209Z,29.20
2022-08-19T18:07:12.570Z,29.20
2022-08-19T18:12:17.044Z,29.00
2022-08-19T18:17:22.977Z,29.00
2022-08-19T18:22:34.006Z,28.70
2022-08-19T18:27:36.735Z,28.60
2022-08-19T18:32:40.051Z,28.50
2022-08-19T18:37:44.224Z,28.50
2022-08-19T18:43:06.341Z,28.50
2022-08-19T18:48:28.321Z,28.40
2022-08-19T18:53:33.209Z,28.40
2022-08-19T18:58:37.189Z,28.10
2022-08-19T19:03:45.748Z,27.90
2022-08-19T19:08:50.241Z,27.80
2022-08-19T19:13:53.521Z,27.60
2022-08-19T19:18:56.139Z,27.60
2022-08-19T19:23:58.587Z,27.70
2022-08-19T19:29:00.966Z,27.60
2022-08-19T19:34:03.919Z,27.50
2022-08-19T19:39:07.416Z,27.50
2022-08-19T19:44:32.498Z,27.30
2022-08-19T19:49:33.944Z,27.30
2022-08-19T19:54:37.793Z,27.20
2022-08-19T19:59:44.882Z,27.40
2022-08-19T20:04:56.276Z,27.20
2022-08-19T20:10:00.040Z,27.00
2022-08-19T20:15:03.349Z,26.90
2022-08-19T20:20:06.128Z,26.90
2022-08-19T20:25:14.487Z,26.80
2022-08-19T20:30:20.740Z,26.80
2022-08-19T20:35:23.489Z,26.80
2022-08-19T20:40:27.094Z,26.80
2022-08-19T20:45:32.944Z,26.80
2022-08-19T20:50:37.192Z,26.80
2022-08-19T20:55:39.771Z,26.80
2022-08-19T21:00:46.436Z,26.80
2022-08-19T21:05:49.201Z,26.60
2022-08-19T21:10:52.976Z,26.50
2022-08-19T21:15:55.998Z,26.60
2022-08-19T21:20:58.509Z,26.40
2022-08-19T21:26:01.559Z,26.30
2022-08-19T21:31:06.585Z,26.30
2022-08-19T21:36:09.361Z,26.30
2022-08-19T21:41:11.935Z,26.30
2022-08-19T21:46:14.963Z,26.30
2022-08-19T21:51:18.189Z,26.00
2022-08-19T21:56:24.439Z,24.60
2022-08-19T22:01:26.893Z,24.10
2022-08-19T22:06:29.343Z,24.00
2022-08-19T22:11:31.847Z,24.10
2022-08-19T22:16:34.244Z,24.00
2022-08-19T22:21:40.233Z,24.00
2022-08-19T22:26:43.537Z,24.10
2022-08-19T22:31:46.003Z,24.20
2022-08-19T22:36:57.481Z,24.20
2022-08-19T22:41:59.916Z,24.30
2022-08-19T22:47:02.470Z,24.50
2022-08-19T22:52:20.505Z,24.40
2022-08-19T22:57:23.851Z,24.50
2022-08-19T23:02:30.082Z,24.40
2022-08-19T23:07:32.916Z,24.30
2022-08-19T23:12:39.267Z,24.40
2022-08-19T23:17:42.147Z,24.40
2022-08-19T23:22:48.578Z,24.20
2022-08-19T23:28:09.868Z,24.30
2022-08-19T23:33:24.875Z,24.30
2022-08-19T23:38:29.527Z,24.40
2022-08-19T23:43:32.064Z,24.30
2022-08-19T23:48:39.217Z,24.10
2022-08-19T23:53:42.420Z,24.20
2022-08-19T23:58:49.084Z,24.00
